Time;durP1;ratioP1;P1;durP2;ratioP2;P2;SDS_P1;SDS_P2;PMS_P1;PMS_P2;Temp;Humidity;BMP_temperature;BMP_pressure;BME280_temperature;BME280_humidity;BME280_pressure;Samples;Min_cycle;Max_cycle;Signal;HPM_P1;HPM_P2
2022/06/01 00:00:42;;;;;;;;;;;21.80;43.70;;;;;;5128238;28;20006;-43
2022/06/01 00:03:07;;;;;;;;;;;21.90;43.80;;;;;;5123206;28;19923;-44
2022/06/01 00:05:33;;;;;;;;;;;21.90;43.80;;;;;;5123167;28;19935;-44
2022/06/01 00:07:59;;;;;;;;;;;22.00;43.70;;;;;;5128453;28;19924;-44
2022/06/01 00:10:25;;;;;;;;;;;22.00;43.70;;;;;;5122306;27;19934;-47
2022/06/01 00:12:51;;;;;;;;;;;22.10;43.40;;;;;;5121328;28;20001;-46
2022/06/01 00:15:17;;;;;;;;;;;22.10;43.30;;;;;;5126871;28;19923;-46
2022/06/01 00:17:43;;;;;;;;;;;22.00;43.20;;;;;;5122156;28;19923;-45
2022/06/01 00:20:09;;;;;;;;;;;22.20;42.90;;;;;;5127886;28;20392;-45
2022/06/01 00:22:36;;;;;;;;;;;22.10;43.00;;;;;;5122692;27;19927;-46
2022/06/01 00:25:04;;;;;;;;;;;22.10;43.10;;;;;;5122582;28;19923;-45
2022/06/01 00:27:30;;;;;;;;;;;22.30;42.70;;;;;;5127619;28;19932;-45
2022/06/01 00:29:57;;;;;;;;;;;22.20;42.80;;;;;;5121974;28;19938;-44
2022/06/01 00:32:23;;;;;;;;;;;22.20;42.90;;;;;;5119927;28;20450;-46
2022/06/01 00:34:49;;;;;;;;;;;22.20;42.80;;;;;;5127105;28;19963;-45
2022/06/01 00:37:14;;;;;;;;;;;22.10;42.90;;;;;;5121826;28;19927;-46
2022/06/01 00:39:40;;;;;;;;;;;22.10;42.90;;;;;;5124967;28;19927;-53
2022/06/01 00:42:32;;;;;;;;;;;22.20;42.50;;;;;;5125436;28;19973;-46
2022/06/01 00:44:58;;;;;;;;;;;22.20;42.40;;;;;;5119107;28;19972;-46
2022/06/01 00:47:24;;;;;;;;;;;22.20;42.40;;;;;;5124877;28;20377;-53
2022/06/01 00:50:05;;;;;;;;;;;22.10;42.60;;;;;;5123035;28;19993;-44
2022/06/01 00:52:38;;;;;;;;;;;22.10;42.80;;;;;;5121146;28;20178;-45
2022/06/01 00:55:09;;;;;;;;;;;22.20;42.70;;;;;;5126392;28;19927;-58
2022/06/01 00:57:35;;;;;;;;;;;22.20;42.70;;;;;;5106789;28;20599;-47
2022/06/01 01:00:03;;;;;;;;;;;22.10;42.60;;;;;;5102575;28;19931;-47
2022/06/01 01:02:29;;;;;;;;;;;22.20;42.50;;;;;;5127545;28;20064;-47
2022/06/01 01:04:55;;;;;;;;;;;22.20;42.20;;;;;;5102976;28;19923;-48
2022/06/01 01:07:20;;;;;;;;;;;22.20;42.10;;;;;;5085012;28;20367;-51
2022/06/01 01:09:46;;;;;;;;;;;22.20;42.10;;;;;;5125904;28;19927;-52
2022/06/01 01:12:12;;;;;;;;;;;22.10;42.20;;;;;;5102913;28;19968;-50
2022/06/01 01:14:40;;;;;;;;;;;22.00;42.30;;;;;;5103189;28;19924;-53
2022/06/01 01:17:06;;;;;;;;;;;22.00;42.70;;;;;;5127377;28;20022;-50
2022/06/01 01:19:36;;;;;;;;;;;21.90;42.70;;;;;;5121793;28;19946;-50
2022/06/01 01:22:10;;;;;;;;;;;21.90;42.80;;;;;;5108002;28;20064;-51
2022/06/01 01:24:38;;;;;;;;;;;22.00;42.50;;;;;;5123465;28;19932;-52
2022/06/01 01:27:04;;;;;;;;;;;22.00;42.40;;;;;;5100312;28;20022;-51
2022/06/01 01:29:31;;;;;;;;;;;22.10;42.20;;;;;;5126174;28;19950;-53
2022/06/01 01:31:57;;;;;;;;;;;22.10;42.00;;;;;;5121075;28;20037;-56
2022/06/01 01:34:22;;;;;;;;;;;22.20;41.80;;;;;;5121473;28;19928;-54
2022/06/01 01:36:49;;;;;;;;;;;22.20;41.60;;;;;;5126702;28;19952;-51
2022/06/01 01:39:15;;;;;;;;;;;22.20;41.60;;;;;;5121486;28;20001;-51
2022/06/01 01:41:42;;;;;;;;;;;22.20;41.70;;;;;;5121509;28;19923;-57
2022/06/01 01:44:09;;;;;;;;;;;22.10;41.90;;;;;;5125256;28;19934;-53
2022/06/01 01:46:35;;;;;;;;;;;22.00;42.40;;;;;;5119457;28;19924;-51
2022/06/01 01:49:02;;;;;;;;;;;22.00;42.40;;;;;;5106226;28;19931;-48
2022/06/01 01:51:29;;;;;;;;;;;22.00;42.20;;;;;;5120861;28;20046;-50
2022/06/01 01:53:55;;;;;;;;;;;22.20;41.90;;;;;;5121234;28;19923;-50
2022/06/01 01:56:22;;;;;;;;;;;22.00;41.90;;;;;;5126561;28;19923;-50
2022/06/01 01:58:57;;;;;;;;;;;21.60;41.90;;;;;;5102726;28;20034;-51
2022/06/01 02:01:53;;;;;;;;;;;21.50;41.10;;;;;;5120784;28;20136;-51
2022/06/01 02:07:05;;;;;;;;;;;21.80;42.00;;;;;;5104834;28;20447;-50
2022/06/01 02:12:41;;;;;;;;;;;21.80;42.50;;;;;;5102202;28;19927;-49
2022/06/01 02:15:01;;;;;;;;;;;21.90;42.60;;;;;;5124725;28;20026;-48
2022/06/01 02:17:37;;;;;;;;;;;22.00;42.30;;;;;;5120374;28;19930;-52
2022/06/01 02:20:10;;;;;;;;;;;22.10;42.00;;;;;;5108077;28;19927;-51
2022/06/01 02:22:39;;;;;;;;;;;22.20;41.80;;;;;;5118450;27;20021;-52
2022/06/01 02:25:06;;;;;;;;;;;22.20;41.70;;;;;;5119977;28;20027;-49
2022/06/01 02:27:31;;;;;;;;;;;22.10;41.90;;;;;;5121637;28;19924;-50
2022/06/01 02:29:59;;;;;;;;;;;22.00;42.00;;;;;;5101994;28;19939;-50
2022/06/01 02:32:28;;;;;;;;;;;22.10;41.90;;;;;;5101982;28;19937;-52
2022/06/01 02:34:54;;;;;;;;;;;22.20;41.80;;;;;;5126041;28;19962;-50
2022/06/01 02:37:20;;;;;;;;;;;22.10;41.80;;;;;;5101999;28;19934;-48
2022/06/01 02:39:47;;;;;;;;;;;22.10;41.90;;;;;;5118887;28;19974;-55
2022/06/01 02:42:25;;;;;;;;;;;22.20;41.60;;;;;;5105630;28;19931;-53
2022/06/01 02:44:55;;;;;;;;;;;22.10;41.60;;;;;;5119994;28;20267;-49
2022/06/01 02:47:24;;;;;;;;;;;22.20;41.20;;;;;;5124371;28;19927;-53
2022/06/01 02:49:50;;;;;;;;;;;22.20;41.40;;;;;;5088198;28;20474;-49
2022/06/01 02:52:16;;;;;;;;;;;22.10;41.50;;;;;;5120376;28;19972;-53
2022/06/01 02:54:41;;;;;;;;;;;22.10;41.70;;;;;;5125712;28;19930;-52
2022/06/01 02:57:07;;;;;;;;;;;21.90;42.00;;;;;;5119735;28;19930;-53
2022/06/01 02:59:33;;;;;;;;;;;22.00;41.80;;;;;;5118142;28;19927;-53
2022/06/01 03:01:59;;;;;;;;;;;22.10;41.70;;;;;;5124913;28;19973;-49
2022/06/01 03:04:26;;;;;;;;;;;22.20;41.40;;;;;;5119622;28;19931;-48
2022/06/01 03:06:53;;;;;;;;;;;22.20;41.50;;;;;;5120380;28;19927;-53
2022/06/01 03:09:19;;;;;;;;;;;22.20;41.40;;;;;;5107391;28;20030;-49
2022/06/01 03:11:44;;;;;;;;;;;22.20;41.40;;;;;;5101878;28;20290;-49
2022/06/01 03:14:10;;;;;;;;;;;22.20;41.30;;;;;;5107023;28;19923;-55
2022/06/01 03:16:37;;;;;;;;;;;22.20;41.20;;;;;;5118569;28;19930;-50
2022/06/01 03:19:03;;;;;;;;;;;22.10;41.40;;;;;;5118846;28;19930;-51
2022/06/01 03:21:29;;;;;;;;;;;22.10;41.20;;;;;;5125046;27;19924;-50
2022/06/01 03:23:55;;;;;;;;;;;22.20;41.10;;;;;;5119789;28;20343;-50
2022/06/01 03:26:22;;;;;;;;;;;22.20;41.00;;;;;;5120168;28;20616;-51
2022/06/01 03:28:48;;;;;;;;;;;22.20;41.10;;;;;;5125607;28;20294;-51
2022/06/01 03:31:14;;;;;;;;;;;22.20;40.90;;;;;;5120041;28;19927;-52
2022/06/01 03:33:40;;;;;;;;;;;22.20;41.00;;;;;;5125061;28;19931;-54
2022/06/01 03:36:06;;;;;;;;;;;22.00;41.20;;;;;;5117567;28;19933;-55
2022/06/01 03:38:31;;;;;;;;;;;22.00;41.20;;;;;;5119191;28;19974;-53
2022/06/01 03:40:57;;;;;;;;;;;22.10;41.10;;;;;;5106649;28;19953;-53
2022/06/01 03:43:23;;;;;;;;;;;22.10;41.00;;;;;;5119593;27;20018;-51
2022/06/01 03:45:56;;;;;;;;;;;22.10;41.10;;;;;;5122782;28;20618;-50
2022/06/01 03:48:22;;;;;;;;;;;22.10;41.10;;;;;;5128609;28;19923;-54
2022/06/01 03:50:48;;;;;;;;;;;22.20;41.00;;;;;;5122819;28;20026;-49
2022/06/01 03:53:14;;;;;;;;;;;22.30;40.60;;;;;;5123286;28;20375;-57
2022/06/01 03:55:40;;;;;;;;;;;22.20;40.80;;;;;;5126027;28;19931;-50
2022/06/01 03:58:06;;;;;;;;;;;22.10;41.00;;;;;;5122522;28;20340;-51
2022/06/01 04:00:32;;;;;;;;;;;22.10;41.20;;;;;;5128102;28;19985;-51
2022/06/01 04:02:58;;;;;;;;;;;21.70;41.80;;;;;;5092365;28;19947;-58
2022/06/01 04:05:24;;;;;;;;;;;21.30;41.50;;;;;;5122810;28;19923;-47
2022/06/01 04:07:50;;;;;;;;;;;21.20;41.00;;;;;;5128256;28;19930;-48
2022/06/01 04:10:16;;;;;;;;;;;21.50;42.60;;;;;;5104216;28;19939;-49
2022/06/01 04:12:41;;;;;;;;;;;21.70;42.60;;;;;;5120460;28;19934;-49
2022/06/01 04:15:10;;;;;;;;;;;21.80;42.20;;;;;;5092264;28;20392;-48
2022/06/01 04:17:36;;;;;;;;;;;21.90;42.00;;;;;;5122354;28;20014;-52
2022/06/01 04:20:02;;;;;;;;;;;21.90;41.80;;;;;;5128489;28;19923;-49
2022/06/01 04:22:28;;;;;;;;;;;22.00;41.70;;;;;;5122517;27;19923;-49
2022/06/01 04:24:54;;;;;;;;;;;22.00;41.60;;;;;;5122640;28;20022;-51
2022/06/01 04:27:19;;;;;;;;;;;22.00;41.60;;;;;;5109708;28;20399;-50
2022/06/01 04:29:45;;;;;;;;;;;22.10;41.60;;;;;;5102718;28;20204;-51
2022/06/01 04:32:12;;;;;;;;;;;22.10;41.40;;;;;;5120949;28;20331;-49
2022/06/01 04:34:38;;;;;;;;;;;22.10;41.40;;;;;;5109077;28;19933;-51
2022/06/01 04:37:04;;;;;;;;;;;22.10;41.50;;;;;;5122172;28;20424;-53
2022/06/01 04:39:29;;;;;;;;;;;22.20;41.40;;;;;;5127983;28;19924;-50
2022/06/01 04:41:55;;;;;;;;;;;22.20;41.40;;;;;;5122201;28;19929;-49
2022/06/01 04:44:21;;;;;;;;;;;22.20;41.40;;;;;;5103479;28;19927;-47
2022/06/01 04:46:47;;;;;;;;;;;22.20;41.40;;;;;;5127439;28;20378;-51
2022/06/01 04:49:13;;;;;;;;;;;22.20;41.50;;;;;;5120067;28;19924;-51
2022/06/01 04:51:38;;;;;;;;;;;22.30;41.30;;;;;;5121481;28;20410;-49
2022/06/01 04:54:05;;;;;;;;;;;22.20;41.40;;;;;;5127402;28;19966;-53
2022/06/01 04:56:31;;;;;;;;;;;22.30;41.30;;;;;;5122085;27;20281;-49
2022/06/01 04:58:56;;;;;;;;;;;22.20;41.50;;;;;;5126073;28;19970;-58
2022/06/01 05:01:22;;;;;;;;;;;22.10;41.60;;;;;;5123523;28;19938;-50
2022/06/01 05:03:48;;;;;;;;;;;22.10;41.60;;;;;;5086266;28;20082;-51
2022/06/01 05:06:14;;;;;;;;;;;22.20;41.70;;;;;;5126031;28;19955;-50
2022/06/01 05:08:40;;;;;;;;;;;22.20;41.50;;;;;;5102171;28;19928;-48
2022/06/01 05:11:05;;;;;;;;;;;22.20;41.50;;;;;;5103038;28;20014;-49
2022/06/01 05:13:31;;;;;;;;;;;22.20;41.40;;;;;;5126939;28;19982;-50
2022/06/01 05:15:57;;;;;;;;;;;22.30;41.50;;;;;;5121876;28;20379;-50
2022/06/01 05:18:23;;;;;;;;;;;22.10;41.90;;;;;;5105442;28;20415;-56
2022/06/01 05:20:49;;;;;;;;;;;22.20;41.90;;;;;;5092620;28;19976;-50
2022/06/01 05:23:18;;;;;;;;;;;22.10;42.00;;;;;;5102565;28;20395;-50
2022/06/01 05:25:44;;;;;;;;;;;22.20;41.90;;;;;;5124628;28;20022;-52
2022/06/01 05:28:10;;;;;;;;;;;22.20;41.90;;;;;;5120379;28;19923;-52
2022/06/01 05:30:36;;;;;;;;;;;22.30;41.80;;;;;;5121115;28;19927;-50
2022/06/01 05:33:03;;;;;;;;;;;22.30;41.80;;;;;;5126976;28;19968;-51
2022/06/01 05:35:29;;;;;;;;;;;22.30;41.80;;;;;;5121463;28;19923;-50
2022/06/01 05:37:55;;;;;;;;;;;22.20;41.90;;;;;;5122026;28;19975;-54
2022/06/01 05:40:21;;;;;;;;;;;22.20;42.10;;;;;;5126831;28;19923;-54
2022/06/01 05:42:46;;;;;;;;;;;22.10;42.30;;;;;;5120419;28;19941;-54
2022/06/01 05:45:12;;;;;;;;;;;22.00;42.60;;;;;;5124767;28;19924;-53
2022/06/01 05:47:38;;;;;;;;;;;22.00;42.60;;;;;;5120609;28;20379;-52
2022/06/01 05:50:04;;;;;;;;;;;22.20;42.40;;;;;;5121174;28;19931;-52
2022/06/01 05:52:30;;;;;;;;;;;22.20;42.40;;;;;;5108796;28;19934;-50
2022/06/01 05:54:56;;;;;;;;;;;22.20;42.40;;;;;;5121241;28;19924;-52
2022/06/01 05:57:21;;;;;;;;;;;22.20;42.60;;;;;;5121236;28;19934;-55
2022/06/01 05:59:47;;;;;;;;;;;22.10;42.70;;;;;;5107423;28;19934;-54
2022/06/01 06:02:13;;;;;;;;;;;22.10;42.90;;;;;;5119322;28;20311;-53
2022/06/01 06:04:42;;;;;;;;;;;22.10;42.80;;;;;;5125434;28;19927;-52
2022/06/01 06:07:08;;;;;;;;;;;22.10;43.00;;;;;;5120318;27;20022;-48
2022/06/01 06:09:33;;;;;;;;;;;21.50;43.50;;;;;;5121094;28;20358;-49
2022/06/01 06:11:59;;;;;;;;;;;21.30;42.80;;;;;;5126278;28;19931;-52
2022/06/01 06:14:25;;;;;;;;;;;21.20;42.80;;;;;;5121050;28;20366;-52
2022/06/01 06:16:51;;;;;;;;;;;21.60;44.00;;;;;;5120670;28;19927;-53
2022/06/01 06:19:17;;;;;;;;;;;21.80;44.00;;;;;;5125546;28;20279;-53
2022/06/01 06:21:44;;;;;;;;;;;22.00;43.60;;;;;;5118451;27;19924;-51
2022/06/01 06:24:11;;;;;;;;;;;22.10;43.50;;;;;;5122586;28;19931;-55
2022/06/01 06:26:37;;;;;;;;;;;22.10;43.50;;;;;;5124104;28;20056;-51
2022/06/01 06:29:03;;;;;;;;;;;22.10;43.40;;;;;;5102361;28;19924;-45
2022/06/01 06:31:29;;;;;;;;;;;22.00;43.80;;;;;;5125892;28;19923;-47
2022/06/01 06:33:55;;;;;;;;;;;22.10;43.60;;;;;;5120611;28;19972;-48
2022/06/01 06:36:21;;;;;;;;;;;22.20;43.40;;;;;;5120288;28;20409;-47
2022/06/01 06:38:47;;;;;;;;;;;22.20;43.40;;;;;;5123853;28;19931;-54
2022/06/01 06:41:13;;;;;;;;;;;22.10;43.50;;;;;;5119344;28;19930;-45
2022/06/01 06:43:38;;;;;;;;;;;22.10;43.80;;;;;;5119889;28;19927;-50
2022/06/01 06:46:05;;;;;;;;;;;22.10;43.80;;;;;;5125773;28;19931;-46
2022/06/01 06:48:31;;;;;;;;;;;22.20;43.60;;;;;;5120594;28;20936;-49
2022/06/01 06:50:57;;;;;;;;;;;22.10;43.90;;;;;;5126087;28;19973;-49
2022/06/01 06:53:23;;;;;;;;;;;22.30;43.40;;;;;;5101740;28;19927;-46
2022/06/01 06:55:49;;;;;;;;;;;22.20;43.30;;;;;;5120657;28;20271;-51
2022/06/01 06:58:15;;;;;;;;;;;22.30;43.10;;;;;;5123518;28;19931;-46
2022/06/01 07:00:41;;;;;;;;;;;22.20;43.10;;;;;;5119953;28;19924;-50
2022/06/01 07:03:06;;;;;;;;;;;22.20;43.20;;;;;;5102061;28;20150;-47
2022/06/01 07:08:17;;;;;;;;;;;22.10;43.60;;;;;;5120268;28;19923;-50
2022/06/01 07:10:42;;;;;;;;;;;22.10;43.80;;;;;;5120704;28;19966;-55
2022/06/01 07:13:08;;;;;;;;;;;22.10;43.60;;;;;;5125116;28;19932;-46
2022/06/01 07:15:35;;;;;;;;;;;22.20;43.30;;;;;;5118762;28;19963;-48
2022/06/01 07:18:02;;;;;;;;;;;22.20;43.10;;;;;;5124918;27;20005;-49
2022/06/01 07:20:28;;;;;;;;;;;22.20;43.10;;;;;;5122517;28;19924;-48
2022/06/01 07:22:56;;;;;;;;;;;22.20;43.00;;;;;;5123396;27;20306;-47
2022/06/01 07:25:23;;;;;;;;;;;22.10;42.70;;;;;;5110969;28;20018;-56
2022/06/01 07:27:49;;;;;;;;;;;20.40;45.50;;;;;;5123850;28;19929;-46
2022/06/01 07:30:15;;;;;;;;;;;19.50;47.80;;;;;;5123130;28;20391;-48
2022/06/01 07:32:43;;;;;;;;;;;20.80;45.90;;;;;;5128236;28;20383;-46
2022/06/01 07:35:09;;;;;;;;;;;21.50;44.30;;;;;;5121409;28;19923;-47
2022/06/01 07:43:07;;;;;;;;;;;22.00;43.20;;;;;;5123252;28;19991;-46
2022/06/01 07:45:34;;;;;;;;;;;22.00;43.10;;;;;;5123613;28;20157;-51
2022/06/01 07:47:59;;;;;;;;;;;22.10;42.80;;;;;;5128532;28;19954;-47
2022/06/01 07:50:25;;;;;;;;;;;22.30;42.50;;;;;;5093863;28;19924;-55
2022/06/01 07:52:51;;;;;;;;;;;22.00;42.80;;;;;;5126751;28;19935;-56
2022/06/01 07:55:17;;;;;;;;;;;20.20;46.30;;;;;;5122380;28;19967;-48
2022/06/01 07:57:42;;;;;;;;;;;19.80;47.90;;;;;;5122553;28;20465;-47
2022/06/01 08:00:08;;;;;;;;;;;20.80;45.90;;;;;;5128389;28;19927;-46
2022/06/01 08:02:34;;;;;;;;;;;21.50;44.10;;;;;;5104418;28;19929;-47
2022/06/01 08:05:00;;;;;;;;;;;21.80;43.40;;;;;;5122978;28;19930;-46
2022/06/01 08:07:26;;;;;;;;;;;21.90;43.10;;;;;;5128116;28;19944;-45
2022/06/01 08:09:52;;;;;;;;;;;22.00;42.70;;;;;;5121665;28;20307;-50
2022/06/01 08:15:02;;;;;;;;;;;21.70;42.60;;;;;;5126650;28;19973;-46
2022/06/01 08:17:28;;;;;;;;;;;21.30;41.90;;;;;;5122490;28;19932;-46
2022/06/01 08:19:54;;;;;;;;;;;21.30;41.20;;;;;;5109793;28;19935;-47
2022/06/01 08:22:19;;;;;;;;;;;21.50;42.60;;;;;;5122342;27;20431;-47
2022/06/01 08:24:45;;;;;;;;;;;21.80;42.40;;;;;;5122415;28;19944;-46
2022/06/01 08:27:11;;;;;;;;;;;22.00;41.50;;;;;;5127897;28;19930;-48
2022/06/01 08:29:37;;;;;;;;;;;22.00;41.20;;;;;;5119926;27;19930;-47
2022/06/01 08:32:04;;;;;;;;;;;22.10;40.60;;;;;;5121254;28;20006;-46
2022/06/01 08:34:31;;;;;;;;;;;22.10;40.30;;;;;;5127491;28;19924;-46
2022/06/01 08:36:56;;;;;;;;;;;22.20;39.90;;;;;;5122387;28;20351;-47
2022/06/01 08:39:22;;;;;;;;;;;22.20;39.70;;;;;;5128020;28;19928;-54
2022/06/01 08:41:48;;;;;;;;;;;22.00;38.50;;;;;;5123169;28;20374;-50
2022/06/01 08:44:22;;;;;;;;;;;20.00;41.30;;;;;;5122353;28;19974;-45
2022/06/01 08:46:48;;;;;;;;;;;19.80;42.20;;;;;;5126268;28;20022;-50
2022/06/01 08:49:14;;;;;;;;;;;21.00;39.80;;;;;;5101243;28;19927;-49
2022/06/01 08:51:40;;;;;;;;;;;21.50;39.00;;;;;;5121575;28;19924;-45
2022/06/01 08:54:06;;;;;;;;;;;21.80;38.40;;;;;;5093899;28;19972;-46
2022/06/01 08:56:41;;;;;;;;;;;22.10;38.10;;;;;;5122305;28;20291;-46
2022/06/01 08:59:16;;;;;;;;;;;22.10;38.00;;;;;;5122250;28;19927;-51
2022/06/01 09:02:05;;;;;;;;;;;22.10;38.00;;;;;;5107285;28;20404;-46
2022/06/01 09:04:41;;;;;;;;;;;22.20;38.00;;;;;;5119022;28;20023;-50
2022/06/01 09:07:25;;;;;;;;;;;22.10;38.20;;;;;;5101430;28;20006;-46
2022/06/01 09:10:10;;;;;;;;;;;22.20;38.20;;;;;;5127057;28;19938;-57
2022/06/01 09:12:35;;;;;;;;;;;21.50;39.70;;;;;;5122130;28;19931;-52
2022/06/01 09:15:12;;;;;;;;;;;20.00;43.10;;;;;;5122153;28;19971;-45
2022/06/01 09:17:39;;;;;;;;;;;20.30;43.00;;;;;;5127146;28;19923;-46
2022/06/01 09:22:53;;;;;;;;;;;21.80;39.50;;;;;;5121005;27;20382;-46
2022/06/01 09:25:20;;;;;;;;;;;22.00;39.10;;;;;;5105610;28;19968;-45
2022/06/01 09:27:52;;;;;;;;;;;22.00;39.10;;;;;;5085316;28;19929;-45
2022/06/01 09:30:35;;;;;;;;;;;22.10;39.00;;;;;;5121183;28;20449;-45
2022/06/01 09:33:20;;;;;;;;;;;22.20;38.90;;;;;;5127352;28;19923;-46
2022/06/01 09:35:59;;;;;;;;;;;22.20;38.70;;;;;;5121591;28;19923;-50
2022/06/01 09:39:03;;;;;;;;;;;22.20;38.50;;;;;;5122266;28;19973;-51
2022/06/01 09:41:31;;;;;;;;;;;20.40;41.90;;;;;;5061336;28;20669;-54
2022/06/01 09:43:58;;;;;;;;;;;19.60;44.10;;;;;;5056678;28;19942;-48
2022/06/01 09:46:47;;;;;;;;;;;20.90;41.40;;;;;;5086833;28;19924;-48
2022/06/01 09:49:31;;;;;;;;;;;21.50;39.90;;;;;;5117739;28;19932;-52
2022/06/01 09:52:02;;;;;;;;;;;21.80;39.30;;;;;;5126656;28;19923;-48
2022/06/01 09:54:32;;;;;;;;;;;21.90;39.00;;;;;;5120985;28;19963;-46
2022/06/01 09:56:57;;;;;;;;;;;22.00;38.90;;;;;;5126420;28;20059;-54
2022/06/01 10:07:41;;;;;;;;;;;21.80;37.90;;;;;;5126827;28;20446;-49
2022/06/01 10:10:07;;;;;;;;;;;20.00;41.00;;;;;;5120952;28;19935;-47
2022/06/01 10:12:44;;;;;;;;;;;20.90;39.20;;;;;;5123628;28;20010;-50
2022/06/01 10:15:16;;;;;;;;;;;21.60;37.70;;;;;;5126242;28;20006;-46
2022/06/01 10:17:42;;;;;;;;;;;21.80;37.20;;;;;;5120562;28;19931;-46
2022/06/01 10:20:23;;;;;;;;;;;21.80;37.30;;;;;;5123600;28;19934;-46
2022/06/01 10:22:56;;;;;;;;;;;21.20;37.90;;;;;;5105451;28;19924;-47
2022/06/01 10:25:39;;;;;;;;;;;21.20;37.50;;;;;;5100424;28;19928;-45
2022/06/01 10:28:06;;;;;;;;;;;21.60;37.60;;;;;;5103684;28;19939;-56
2022/06/01 10:30:36;;;;;;;;;;;21.90;36.80;;;;;;5107268;28;20061;-45
2022/06/01 10:33:09;;;;;;;;;;;22.10;36.30;;;;;;5120656;28;19927;-45
2022/06/01 10:35:39;;;;;;;;;;;22.00;36.20;;;;;;5126304;28;20321;-46
2022/06/01 10:38:29;;;;;;;;;;;22.10;36.00;;;;;;5100448;28;19924;-47
2022/06/01 10:41:00;;;;;;;;;;;22.20;35.80;;;;;;5111215;28;20457;-47
2022/06/01 10:43:49;;;;;;;;;;;22.20;35.60;;;;;;5125746;28;19927;-55
2022/06/01 10:46:33;;;;;;;;;;;21.50;34.60;;;;;;5118227;28;19927;-49
2022/06/01 10:49:10;;;;;;;;;;;20.00;36.80;;;;;;5102220;28;20684;-45
2022/06/01 10:51:36;;;;;;;;;;;20.30;36.10;;;;;;5120540;28;20224;-43
2022/06/01 10:54:07;;;;;;;;;;;21.40;34.50;;;;;;5109383;28;19924;-46
2022/06/01 10:56:34;;;;;;;;;;;21.80;33.90;;;;;;5121017;28;21427;-43
2022/06/01 10:59:08;;;;;;;;;;;22.00;33.70;;;;;;5107358;28;19931;-53
2022/06/01 11:01:33;;;;;;;;;;;22.10;33.60;;;;;;5129086;28;20036;-45
2022/06/01 11:04:11;;;;;;;;;;;22.20;33.40;;;;;;5123734;28;20018;-45
2022/06/01 11:06:47;;;;;;;;;;;22.20;33.50;;;;;;5129276;28;19924;-47
2022/06/01 11:09:23;;;;;;;;;;;22.20;33.50;;;;;;5110183;28;20336;-44
2022/06/01 11:12:12;;;;;;;;;;;22.20;33.50;;;;;;5123627;28;19975;-47
2022/06/01 11:14:39;;;;;;;;;;;22.30;33.00;;;;;;5093427;28;19924;-53
2022/06/01 11:17:22;;;;;;;;;;;20.90;34.20;;;;;;5128418;28;20018;-46
2022/06/01 11:19:48;;;;;;;;;;;20.00;35.70;;;;;;5123296;28;19927;-45
2022/06/01 11:22:14;;;;;;;;;;;21.00;33.90;;;;;;5126129;27;20014;-51
2022/06/01 11:24:45;;;;;;;;;;;21.80;32.90;;;;;;5126789;28;19940;-44
2022/06/01 11:27:17;;;;;;;;;;;22.00;32.70;;;;;;5124285;28;20014;-44
2022/06/01 11:29:47;;;;;;;;;;;22.20;32.60;;;;;;5129009;28;19974;-44
2022/06/01 11:32:14;;;;;;;;;;;22.10;32.70;;;;;;5122340;28;19927;-45
2022/06/01 11:34:57;;;;;;;;;;;22.20;32.60;;;;;;5122273;28;19927;-48
2022/06/01 11:37:40;;;;;;;;;;;22.30;32.80;;;;;;5109980;28;19968;-45
2022/06/01 11:40:08;;;;;;;;;;;22.30;32.70;;;;;;5126031;28;20366;-47
2022/06/01 11:42:36;;;;;;;;;;;21.80;32.80;;;;;;5123749;28;19982;-48
2022/06/01 11:45:13;;;;;;;;;;;20.10;35.20;;;;;;5128999;28;19923;-44
2022/06/01 11:47:41;;;;;;;;;;;20.10;35.10;;;;;;5105157;28;19923;-47
2022/06/01 11:50:10;;;;;;;;;;;21.40;33.00;;;;;;5106808;28;19924;-45
2022/06/01 11:52:54;;;;;;;;;;;21.90;32.30;;;;;;5109165;28;19945;-44
2022/06/01 11:55:22;;;;;;;;;;;22.00;32.20;;;;;;5125564;28;20294;-46
2022/06/01 11:57:51;;;;;;;;;;;22.00;32.30;;;;;;5126213;28;20052;-45
2022/06/01 12:00:19;;;;;;;;;;;22.10;32.30;;;;;;5129511;28;20014;-46
2022/06/01 12:02:45;;;;;;;;;;;22.20;32.30;;;;;;5107593;28;20327;-43
2022/06/01 12:05:12;;;;;;;;;;;22.20;32.20;;;;;;5124885;27;19927;-44
2022/06/01 12:07:45;;;;;;;;;;;22.20;32.30;;;;;;5128715;28;20431;-46
2022/06/01 12:10:17;;;;;;;;;;;21.70;32.60;;;;;;5120845;28;19966;-51
2022/06/01 12:12:56;;;;;;;;;;;20.00;35.30;;;;;;5122521;28;19924;-45
2022/06/01 12:15:32;;;;;;;;;;;19.70;35.80;;;;;;5127919;28;20444;-47
2022/06/01 12:17:58;;;;;;;;;;;21.00;33.60;;;;;;5104971;28;20032;-49
2022/06/01 12:20:30;;;;;;;;;;;21.80;32.50;;;;;;5122798;28;20382;-54
2022/06/01 12:28:48;;;;;;;;;;;21.30;33.30;;;;;;5119935;28;19973;-48
2022/06/01 12:31:15;;;;;;;;;;;21.20;33.60;;;;;;5126928;28;20325;-47
2022/06/01 12:33:59;;;;;;;;;;;21.60;33.20;;;;;;5086305;28;19939;-46
2022/06/01 12:36:25;;;;;;;;;;;21.90;32.80;;;;;;5122128;28;20347;-49
2022/06/01 12:38:51;;;;;;;;;;;22.10;32.50;;;;;;5127249;28;19927;-52
2022/06/01 12:41:18;;;;;;;;;;;22.20;32.50;;;;;;5122102;28;19980;-48
2022/06/01 12:43:51;;;;;;;;;;;22.20;32.70;;;;;;5121428;28;19984;-48
2022/06/01 12:46:21;;;;;;;;;;;22.20;32.60;;;;;;5125361;28;20404;-49
2022/06/01 12:48:47;;;;;;;;;;;22.20;32.60;;;;;;5102437;28;19924;-47
2022/06/01 12:51:13;;;;;;;;;;;22.20;32.60;;;;;;5125095;28;20000;-55
2022/06/01 12:53:40;;;;;;;;;;;22.20;32.70;;;;;;5124267;28;19927;-48
2022/06/01 12:56:12;;;;;;;;;;;21.20;34.20;;;;;;5103815;28;20036;-49
2022/06/01 12:58:40;;;;;;;;;;;19.90;36.60;;;;;;5127270;28;19990;-46
2022/06/01 13:01:06;;;;;;;;;;;20.10;36.60;;;;;;5103362;28;19930;-48
2022/06/01 13:03:35;;;;;;;;;;;21.30;34.70;;;;;;5103194;28;19942;-46
2022/06/01 13:06:02;;;;;;;;;;;21.70;33.90;;;;;;5122405;28;19923;-47
2022/06/01 13:08:29;;;;;;;;;;;22.00;33.30;;;;;;5085937;28;19935;-46
2022/06/01 13:10:54;;;;;;;;;;;22.20;33.10;;;;;;5121900;28;19924;-47
2022/06/01 13:13:23;;;;;;;;;;;22.30;33.10;;;;;;5108931;28;19931;-48
2022/06/01 13:15:57;;;;;;;;;;;22.30;33.20;;;;;;5122288;27;21033;-48
2022/06/01 13:18:26;;;;;;;;;;;22.20;33.40;;;;;;5123925;28;20386;-55
2022/06/01 13:20:58;;;;;;;;;;;22.30;33.40;;;;;;5125898;28;20326;-47
2022/06/01 13:23:27;;;;;;;;;;;22.30;33.50;;;;;;5114338;27;20370;-48
2022/06/01 13:25:53;;;;;;;;;;;21.60;35.00;;;;;;5107921;28;20358;-47
2022/06/01 13:28:19;;;;;;;;;;;20.10;38.10;;;;;;5103082;28;20185;-46
2022/06/01 13:30:45;;;;;;;;;;;20.00;38.60;;;;;;5103117;28;19928;-47
2022/06/01 13:33:15;;;;;;;;;;;21.30;36.40;;;;;;5126798;28;19937;-48
2022/06/01 13:35:41;;;;;;;;;;;21.80;35.30;;;;;;5101864;28;19928;-45
2022/06/01 13:38:15;;;;;;;;;;;22.00;34.90;;;;;;5121154;28;20863;-46
2022/06/01 13:40:57;;;;;;;;;;;22.10;34.80;;;;;;5124617;28;19927;-48
2022/06/01 13:43:23;;;;;;;;;;;22.20;34.70;;;;;;5119719;28;20236;-44
2022/06/01 13:45:59;;;;;;;;;;;22.20;34.70;;;;;;5120596;28;19923;-45
2022/06/01 13:48:31;;;;;;;;;;;22.30;34.50;;;;;;5126480;28;19933;-46
2022/06/01 13:50:56;;;;;;;;;;;22.20;34.60;;;;;;5121111;28;19923;-50
2022/06/01 13:53:32;;;;;;;;;;;20.60;37.60;;;;;;5102597;28;20289;-46
2022/06/01 13:56:02;;;;;;;;;;;19.90;39.30;;;;;;5126475;28;19924;-45
2022/06/01 13:58:37;;;;;;;;;;;21.30;36.70;;;;;;5119540;28;19923;-50
2022/06/01 14:01:23;;;;;;;;;;;21.90;35.70;;;;;;5100553;28;19945;-52
2022/06/01 14:03:53;;;;;;;;;;;22.00;35.30;;;;;;5093001;28;19923;-45
2022/06/01 14:06:28;;;;;;;;;;;22.20;35.20;;;;;;5120559;28;20075;-45
2022/06/01 14:08:55;;;;;;;;;;;22.20;35.20;;;;;;5102377;28;19927;-48
2022/06/01 14:11:25;;;;;;;;;;;22.20;35.10;;;;;;5126092;28;20376;-49
2022/06/01 14:13:51;;;;;;;;;;;22.30;35.10;;;;;;5120623;28;19930;-54
2022/06/01 14:16:17;;;;;;;;;;;21.30;36.50;;;;;;5125943;28;20287;-52
2022/06/01 14:18:50;;;;;;;;;;;20.20;38.80;;;;;;5099665;28;20030;-46
2022/06/01 14:21:16;;;;;;;;;;;20.40;38.50;;;;;;5102037;28;20013;-50
2022/06/01 14:23:41;;;;;;;;;;;21.50;36.50;;;;;;5092758;28;19931;-52
2022/06/01 14:28:52;;;;;;;;;;;22.10;35.40;;;;;;5119922;27;19927;-44
2022/06/01 14:31:31;;;;;;;;;;;22.10;35.40;;;;;;5125903;28;19928;-43
2022/06/01 14:33:58;;;;;;;;;;;21.60;36.10;;;;;;5120422;28;19927;-45
2022/06/01 14:36:24;;;;;;;;;;;21.40;36.10;;;;;;5117518;28;19931;-46
2022/06/01 14:38:50;;;;;;;;;;;21.60;36.30;;;;;;5124482;28;19943;-45
2022/06/01 14:41:26;;;;;;;;;;;22.00;35.60;;;;;;5119827;28;19938;-44
2022/06/01 14:43:52;;;;;;;;;;;22.20;35.30;;;;;;5120216;28;20082;-53
2022/06/01 14:46:18;;;;;;;;;;;22.20;34.90;;;;;;5106019;28;20360;-52
2022/06/01 14:48:44;;;;;;;;;;;20.50;37.70;;;;;;5120510;28;19931;-52
2022/06/01 14:51:11;;;;;;;;;;;19.80;38.90;;;;;;5125326;28;20329;-56
2022/06/01 14:53:37;;;;;;;;;;;20.90;37.10;;;;;;5102538;28;20014;-46
2022/06/01 14:56:04;;;;;;;;;;;21.50;35.90;;;;;;5118123;28;20383;-46
2022/06/01 14:58:29;;;;;;;;;;;21.90;35.10;;;;;;5125104;28;20344;-46
2022/06/01 15:00:56;;;;;;;;;;;22.00;35.00;;;;;;5119837;28;19928;-47